PBR330 CYWG-CYQR
Flight info
| Callsign | PBR330 |
|---|---|
| Flight time | 1h 15m |
| Altitude | 26000 |
| Route | LIVBI DCT DUKPO DCT FAREN DCT EMLIK DCT KEMKA KEMKA6 |
| Aircraft | B350/L-SBGRW/S |
Departure
| Time | 2026-04-17 21:35 |
|---|---|
| Airport | Winnipeg / James Armstrong Richardson International Airport (CYWG) |
Arrival
| Time | 2026-04-17 22:50 |
|---|---|
| Airport | Regina International Airport (CYQR) |
| Time | Latitude | Longitude | Altitude | Speed | Heading |
|---|---|---|---|---|---|
| 2026-04-17 21:17 | 49.89318 | -97.23223 | 759 ft | 0 kts | 49° |
| 2026-04-17 21:30 | 49.89319 | -97.23223 | 759 ft | 0 kts | 49° |
| 2026-04-17 21:30 | 49.89325 | -97.23213 | 759 ft | 3 kts | 38° |
| 2026-04-17 21:30 | 49.89370 | -97.23213 | 760 ft | 11 kts | 322° |
| 2026-04-17 21:30 | 49.89415 | -97.23276 | 761 ft | 12 kts | 318° |
| 2026-04-17 21:31 | 49.89506 | -97.23316 | 762 ft | 12 kts | 82° |
| 2026-04-17 21:31 | 49.89495 | -97.23141 | 759 ft | 20 kts | 96° |
| 2026-04-17 21:31 | 49.89477 | -97.22980 | 759 ft | 0 kts | 76° |
| 2026-04-17 21:31 | 49.89479 | -97.22942 | 759 ft | 8 kts | 90° |
| 2026-04-17 21:32 | 49.89499 | -97.22845 | 759 ft | 12 kts | 43° |
| 2026-04-17 21:32 | 49.89553 | -97.22833 | 759 ft | 0 kts | 317° |
| 2026-04-17 21:34 | 49.89554 | -97.22834 | 759 ft | 2 kts | 317° |
| 2026-04-17 21:34 | 49.90052 | -97.23519 | 845 ft | 114 kts | 319° |
| 2026-04-17 21:35 | 49.90600 | -97.24323 | 1735 ft | 109 kts | 311° |
| 2026-04-17 21:35 | 49.91174 | -97.25224 | 2330 ft | 133 kts | 314° |
| 2026-04-17 21:35 | 49.91864 | -97.26321 | 2909 ft | 155 kts | 312° |
| 2026-04-17 21:35 | 49.92705 | -97.27711 | 3092 ft | 194 kts | 312° |
| 2026-04-17 21:36 | 49.93580 | -97.29191 | 4132 ft | 183 kts | 310° |
| 2026-04-17 21:36 | 49.94211 | -97.30685 | 5297 ft | 161 kts | 285° |
| 2026-04-17 21:36 | 49.94382 | -97.32280 | 6288 ft | 150 kts | 271° |
| 2026-04-17 21:36 | 49.94350 | -97.33823 | 7078 ft | 146 kts | 266° |
| 2026-04-17 21:37 | 49.94252 | -97.35374 | 7758 ft | 147 kts | 263° |
| 2026-04-17 21:37 | 49.94153 | -97.36955 | 8357 ft | 152 kts | 263° |
| 2026-04-17 21:37 | 49.94056 | -97.38579 | 8945 ft | 155 kts | 262° |
| 2026-04-17 21:37 | 49.93961 | -97.40216 | 9500 ft | 158 kts | 262° |
| 2026-04-17 21:38 | 49.93866 | -97.41903 | 10076 ft | 159 kts | 261° |
| 2026-04-17 21:38 | 49.93766 | -97.43581 | 10656 ft | 158 kts | 259° |
| 2026-04-17 21:38 | 49.93686 | -97.45256 | 11190 ft | 161 kts | 262° |
| 2026-04-17 21:38 | 49.93663 | -97.46996 | 11693 ft | 163 kts | 262° |
| 2026-04-17 21:39 | 49.93592 | -97.48724 | 12225 ft | 162 kts | 258° |
| 2026-04-17 21:39 | 49.93519 | -97.50443 | 12697 ft | 166 kts | 262° |
| 2026-04-17 21:39 | 49.93528 | -97.52213 | 13223 ft | 162 kts | 256° |
| 2026-04-17 21:39 | 49.93411 | -97.53914 | 13701 ft | 162 kts | 254° |
| 2026-04-17 21:40 | 49.93270 | -97.55633 | 14199 ft | 160 kts | 252° |
| 2026-04-17 21:40 | 49.93151 | -97.56752 | 14565 ft | 157 kts | 250° |
| 2026-04-17 21:40 | 49.92966 | -97.58950 | 15283 ft | 153 kts | 252° |
| 2026-04-17 21:40 | 49.92849 | -97.60560 | 15753 ft | 150 kts | 252° |
| 2026-04-17 21:41 | 49.92745 | -97.62124 | 16218 ft | 147 kts | 252° |
| 2026-04-17 21:41 | 49.92646 | -97.63697 | 16645 ft | 146 kts | 251° |
| 2026-04-17 21:41 | 49.92551 | -97.65242 | 17056 ft | 145 kts | 249° |
| 2026-04-17 21:41 | 49.92458 | -97.66782 | 17448 ft | 146 kts | 249° |
| 2026-04-17 21:42 | 49.92367 | -97.68346 | 17907 ft | 144 kts | 248° |
| 2026-04-17 21:42 | 49.92281 | -97.69837 | 18344 ft | 140 kts | 245° |
| 2026-04-17 21:42 | 49.92195 | -97.71310 | 18782 ft | 137 kts | 246° |
| 2026-04-17 21:42 | 49.92109 | -97.72762 | 19179 ft | 137 kts | 246° |
| 2026-04-17 21:43 | 49.92022 | -97.74229 | 19555 ft | 137 kts | 245° |
| 2026-04-17 21:43 | 49.91943 | -97.75702 | 19903 ft | 142 kts | 248° |
| 2026-04-17 21:43 | 49.92065 | -97.77303 | 20259 ft | 156 kts | 258° |
| 2026-04-17 21:43 | 49.92271 | -97.78923 | 20623 ft | 154 kts | 258° |
| 2026-04-17 21:44 | 49.92405 | -97.79993 | 20865 ft | 154 kts | 258° |
| 2026-04-17 21:44 | 49.92677 | -97.82181 | 21300 ft | 155 kts | 258° |
| 2026-04-17 21:44 | 49.92880 | -97.83788 | 21641 ft | 154 kts | 258° |
| 2026-04-17 21:44 | 49.93082 | -97.85403 | 21955 ft | 154 kts | 257° |
| 2026-04-17 21:45 | 49.93287 | -97.87049 | 22272 ft | 155 kts | 257° |
| 2026-04-17 21:45 | 49.93489 | -97.88654 | 22583 ft | 154 kts | 256° |
| 2026-04-17 21:45 | 49.93692 | -97.90286 | 22862 ft | 155 kts | 256° |
| 2026-04-17 21:45 | 49.93897 | -97.91919 | 23144 ft | 156 kts | 256° |
| 2026-04-17 21:46 | 49.94101 | -97.93556 | 23419 ft | 156 kts | 256° |
| 2026-04-17 21:46 | 49.94305 | -97.95178 | 23731 ft | 154 kts | 257° |
| 2026-04-17 21:46 | 49.94497 | -97.96718 | 24000 ft | 153 kts | 256° |
| 2026-04-17 21:46 | 49.94701 | -97.98364 | 24246 ft | 153 kts | 255° |
| 2026-04-17 21:47 | 49.94901 | -97.99972 | 24477 ft | 153 kts | 255° |
| 2026-04-17 21:47 | 49.95104 | -98.01606 | 24698 ft | 153 kts | 256° |
| 2026-04-17 21:47 | 49.95304 | -98.03216 | 24937 ft | 152 kts | 255° |
| 2026-04-17 21:47 | 49.95498 | -98.04797 | 25132 ft | 152 kts | 255° |
| 2026-04-17 21:48 | 49.95692 | -98.06412 | 25283 ft | 156 kts | 255° |
| 2026-04-17 21:48 | 49.95894 | -98.08077 | 25563 ft | 158 kts | 255° |
| 2026-04-17 21:48 | 49.96099 | -98.09753 | 25818 ft | 161 kts | 256° |
| 2026-04-17 21:48 | 49.96304 | -98.11527 | 25855 ft | 177 kts | 257° |
| 2026-04-17 21:49 | 49.96530 | -98.13426 | 25870 ft | 190 kts | 259° |
| 2026-04-17 21:49 | 49.96783 | -98.15502 | 25866 ft | 200 kts | 260° |
| 2026-04-17 21:49 | 49.97046 | -98.17641 | 25865 ft | 210 kts | 261° |
| 2026-04-17 21:49 | 49.97323 | -98.19894 | 25866 ft | 219 kts | 262° |
| 2026-04-17 21:50 | 49.97609 | -98.22212 | 25861 ft | 228 kts | 262° |
| 2026-04-17 21:50 | 49.97912 | -98.24665 | 25859 ft | 235 kts | 263° |
| 2026-04-17 21:50 | 49.98217 | -98.27148 | 25860 ft | 242 kts | 263° |
| 2026-04-17 21:50 | 49.98536 | -98.29745 | 25860 ft | 247 kts | 264° |
| 2026-04-17 21:51 | 49.98859 | -98.32383 | 25855 ft | 253 kts | 264° |
| 2026-04-17 21:51 | 49.99189 | -98.35084 | 25853 ft | 258 kts | 265° |
| 2026-04-17 21:51 | 49.99414 | -98.36935 | 25853 ft | 261 kts | 265° |
| 2026-04-17 21:51 | 49.99863 | -98.40638 | 25853 ft | 266 kts | 265° |
| 2026-04-17 21:52 | 50.00205 | -98.43459 | 25855 ft | 270 kts | 266° |
| 2026-04-17 21:52 | 50.00557 | -98.46376 | 25851 ft | 273 kts | 265° |
| 2026-04-17 21:52 | 50.00905 | -98.49270 | 25853 ft | 275 kts | 266° |
| 2026-04-17 21:52 | 50.01141 | -98.51224 | 25845 ft | 276 kts | 265° |
| 2026-04-17 21:53 | 50.01600 | -98.55041 | 25851 ft | 276 kts | 266° |
| 2026-04-17 21:53 | 50.01952 | -98.57984 | 25844 ft | 276 kts | 266° |
| 2026-04-17 21:53 | 50.02296 | -98.60868 | 25844 ft | 276 kts | 266° |
| 2026-04-17 21:53 | 50.02604 | -98.63465 | 25847 ft | 276 kts | 266° |
| 2026-04-17 21:54 | 50.02763 | -98.64806 | 25845 ft | 276 kts | 266° |
| 2026-04-17 21:54 | 50.03106 | -98.67703 | 25850 ft | 276 kts | 265° |
| 2026-04-17 21:54 | 50.03456 | -98.70676 | 25849 ft | 277 kts | 265° |
| 2026-04-17 21:54 | 50.03799 | -98.73592 | 25856 ft | 277 kts | 266° |
| 2026-04-17 21:55 | 50.04031 | -98.75565 | 25852 ft | 277 kts | 266° |
| 2026-04-17 21:55 | 50.04491 | -98.79497 | 25843 ft | 277 kts | 266° |
| 2026-04-17 21:55 | 50.04832 | -98.82418 | 25851 ft | 277 kts | 266° |
| 2026-04-17 21:55 | 50.05177 | -98.85372 | 25857 ft | 277 kts | 266° |
| 2026-04-17 21:56 | 50.05519 | -98.88317 | 25861 ft | 277 kts | 266° |
| 2026-04-17 21:56 | 50.05864 | -98.91293 | 25869 ft | 277 kts | 266° |
| 2026-04-17 21:56 | 50.06202 | -98.94217 | 25866 ft | 277 kts | 266° |
| 2026-04-17 21:56 | 50.06544 | -98.97181 | 25861 ft | 277 kts | 266° |
| 2026-04-17 21:57 | 50.06881 | -99.00103 | 25865 ft | 277 kts | 266° |
| 2026-04-17 21:57 | 50.07221 | -99.03069 | 25869 ft | 277 kts | 267° |
| 2026-04-17 21:57 | 50.07559 | -99.06016 | 25867 ft | 277 kts | 267° |
| 2026-04-17 21:57 | 50.07786 | -99.07989 | 25872 ft | 277 kts | 267° |
| 2026-04-17 21:58 | 50.08234 | -99.11898 | 25856 ft | 276 kts | 267° |
| 2026-04-17 21:58 | 50.08569 | -99.14834 | 25859 ft | 276 kts | 267° |
| 2026-04-17 21:58 | 50.08907 | -99.17795 | 25860 ft | 275 kts | 268° |
| 2026-04-17 21:58 | 50.09238 | -99.20716 | 25858 ft | 275 kts | 268° |
| 2026-04-17 21:59 | 50.09565 | -99.23610 | 25854 ft | 275 kts | 268° |
| 2026-04-17 21:59 | 50.09896 | -99.26533 | 25866 ft | 274 kts | 268° |
| 2026-04-17 21:59 | 50.10223 | -99.29439 | 25837 ft | 274 kts | 268° |
| 2026-04-17 21:59 | 50.10554 | -99.32379 | 25845 ft | 273 kts | 268° |
| 2026-04-17 22:00 | 50.10880 | -99.35284 | 25850 ft | 273 kts | 269° |
| 2026-04-17 22:00 | 50.11205 | -99.38188 | 25835 ft | 272 kts | 268° |
| 2026-04-17 22:00 | 50.11524 | -99.41045 | 25850 ft | 271 kts | 269° |
| 2026-04-17 22:00 | 50.11845 | -99.43932 | 25857 ft | 271 kts | 269° |
| 2026-04-17 22:01 | 50.12168 | -99.46840 | 25856 ft | 271 kts | 269° |
| 2026-04-17 22:01 | 50.12489 | -99.49732 | 25851 ft | 271 kts | 270° |
| 2026-04-17 22:01 | 50.12805 | -99.52595 | 25853 ft | 271 kts | 270° |
| 2026-04-17 22:01 | 50.13126 | -99.55505 | 25843 ft | 271 kts | 270° |
| 2026-04-17 22:02 | 50.13440 | -99.58359 | 25854 ft | 272 kts | 270° |
| 2026-04-17 22:02 | 50.13654 | -99.60315 | 25850 ft | 272 kts | 270° |
| 2026-04-17 22:02 | 50.14078 | -99.64186 | 25843 ft | 273 kts | 270° |
| 2026-04-17 22:02 | 50.14395 | -99.67091 | 25856 ft | 273 kts | 270° |
| 2026-04-17 22:03 | 50.14714 | -99.70016 | 25850 ft | 275 kts | 270° |
| 2026-04-17 22:03 | 50.15029 | -99.72920 | 25853 ft | 275 kts | 270° |
| 2026-04-17 22:03 | 50.15349 | -99.75864 | 25858 ft | 276 kts | 271° |
| 2026-04-17 22:03 | 50.15671 | -99.78842 | 25846 ft | 276 kts | 270° |
| 2026-04-17 22:04 | 50.15987 | -99.81760 | 25838 ft | 277 kts | 271° |
| 2026-04-17 22:04 | 50.16305 | -99.84721 | 25842 ft | 277 kts | 271° |
| 2026-04-17 22:04 | 50.16624 | -99.87682 | 25838 ft | 277 kts | 271° |
| 2026-04-17 22:04 | 50.16916 | -99.90658 | 25841 ft | 277 kts | 269° |
| 2026-04-17 22:05 | 50.17158 | -99.93604 | 25836 ft | 276 kts | 269° |
| 2026-04-17 22:05 | 50.17394 | -99.96557 | 25841 ft | 276 kts | 269° |
| 2026-04-17 22:05 | 50.17555 | -99.98564 | 25834 ft | 277 kts | 269° |
| 2026-04-17 22:05 | 50.17876 | -100.02511 | 25842 ft | 277 kts | 270° |
| 2026-04-17 22:06 | 50.18118 | -100.05473 | 25838 ft | 278 kts | 270° |
| 2026-04-17 22:06 | 50.18364 | -100.08473 | 25834 ft | 278 kts | 270° |
| 2026-04-17 22:06 | 50.18608 | -100.11453 | 25832 ft | 278 kts | 270° |
| 2026-04-17 22:06 | 50.18773 | -100.13464 | 25833 ft | 279 kts | 270° |
| 2026-04-17 22:07 | 50.19096 | -100.17416 | 25838 ft | 279 kts | 271° |
| 2026-04-17 22:07 | 50.19342 | -100.20421 | 25835 ft | 279 kts | 272° |
| 2026-04-17 22:07 | 50.19588 | -100.23444 | 25828 ft | 279 kts | 272° |
| 2026-04-17 22:07 | 50.19832 | -100.26449 | 25840 ft | 279 kts | 272° |
| 2026-04-17 22:08 | 50.20074 | -100.29441 | 25821 ft | 280 kts | 272° |
| 2026-04-17 22:08 | 50.20318 | -100.32450 | 25825 ft | 279 kts | 273° |
| 2026-04-17 22:08 | 50.20538 | -100.35188 | 25836 ft | 279 kts | 272° |
| 2026-04-17 22:08 | 50.20651 | -100.36603 | 25837 ft | 279 kts | 272° |
| 2026-04-17 22:09 | 50.21132 | -100.42622 | 25829 ft | 279 kts | 272° |
| 2026-04-17 22:09 | 50.21368 | -100.45585 | 25833 ft | 279 kts | 273° |
| 2026-04-17 22:10 | 50.21861 | -100.51811 | 25849 ft | 279 kts | 274° |
| 2026-04-17 22:10 | 50.22047 | -100.54176 | 25848 ft | 279 kts | 274° |
| 2026-04-17 22:10 | 50.22282 | -100.57172 | 25852 ft | 279 kts | 274° |
| 2026-04-17 22:11 | 50.22518 | -100.60187 | 25852 ft | 279 kts | 274° |
| 2026-04-17 22:11 | 50.22752 | -100.63189 | 25855 ft | 279 kts | 274° |
| 2026-04-17 22:11 | 50.22986 | -100.66190 | 25860 ft | 280 kts | 274° |
| 2026-04-17 22:11 | 50.23217 | -100.69177 | 25867 ft | 280 kts | 274° |
| 2026-04-17 22:12 | 50.23450 | -100.72199 | 25863 ft | 280 kts | 274° |
| 2026-04-17 22:12 | 50.23676 | -100.75135 | 25862 ft | 281 kts | 274° |
| 2026-04-17 22:12 | 50.23910 | -100.78191 | 25863 ft | 281 kts | 274° |
| 2026-04-17 22:12 | 50.24144 | -100.81252 | 25873 ft | 281 kts | 275° |
| 2026-04-17 22:13 | 50.24372 | -100.84251 | 25882 ft | 282 kts | 275° |
| 2026-04-17 22:13 | 50.24604 | -100.87310 | 25867 ft | 283 kts | 275° |
| 2026-04-17 22:13 | 50.24833 | -100.90337 | 25883 ft | 283 kts | 275° |
| 2026-04-17 22:13 | 50.25063 | -100.93392 | 25886 ft | 284 kts | 275° |
| 2026-04-17 22:14 | 50.25295 | -100.96480 | 25890 ft | 284 kts | 276° |
| 2026-04-17 22:14 | 50.25523 | -100.99534 | 25893 ft | 285 kts | 276° |
| 2026-04-17 22:14 | 50.25750 | -101.02572 | 25900 ft | 285 kts | 276° |
| 2026-04-17 22:14 | 50.25979 | -101.05652 | 25917 ft | 286 kts | 276° |
| 2026-04-17 22:15 | 50.26207 | -101.08746 | 25903 ft | 287 kts | 276° |
| 2026-04-17 22:15 | 50.26436 | -101.11847 | 25908 ft | 286 kts | 276° |
| 2026-04-17 22:15 | 50.26660 | -101.14896 | 25910 ft | 287 kts | 276° |
| 2026-04-17 22:15 | 50.26889 | -101.18026 | 25908 ft | 287 kts | 276° |
| 2026-04-17 22:16 | 50.27114 | -101.21123 | 25910 ft | 287 kts | 276° |
| 2026-04-17 22:16 | 50.27338 | -101.24195 | 25916 ft | 288 kts | 276° |
| 2026-04-17 22:16 | 50.27561 | -101.27290 | 25920 ft | 288 kts | 276° |
| 2026-04-17 22:16 | 50.27785 | -101.30391 | 25917 ft | 288 kts | 277° |
| 2026-04-17 22:17 | 50.28007 | -101.33495 | 25915 ft | 288 kts | 277° |
| 2026-04-17 22:17 | 50.28231 | -101.36620 | 25920 ft | 288 kts | 277° |
| 2026-04-17 22:17 | 50.28452 | -101.39721 | 25920 ft | 288 kts | 277° |
| 2026-04-17 22:17 | 50.28672 | -101.42817 | 25922 ft | 289 kts | 277° |
| 2026-04-17 22:18 | 50.28819 | -101.44897 | 25914 ft | 289 kts | 277° |
| 2026-04-17 22:18 | 50.29110 | -101.49034 | 25918 ft | 288 kts | 277° |
| 2026-04-17 22:18 | 50.29327 | -101.52116 | 25928 ft | 286 kts | 278° |
| 2026-04-17 22:18 | 50.29542 | -101.55199 | 25926 ft | 286 kts | 278° |
| 2026-04-17 22:19 | 50.29757 | -101.58289 | 25923 ft | 285 kts | 278° |
| 2026-04-17 22:19 | 50.29971 | -101.61369 | 25924 ft | 284 kts | 278° |
| 2026-04-17 22:19 | 50.30182 | -101.64429 | 25910 ft | 283 kts | 278° |
| 2026-04-17 22:19 | 50.30391 | -101.67462 | 25933 ft | 282 kts | 278° |
| 2026-04-17 22:20 | 50.30598 | -101.70495 | 25930 ft | 283 kts | 278° |
| 2026-04-17 22:20 | 50.30807 | -101.73556 | 25941 ft | 284 kts | 278° |
| 2026-04-17 22:20 | 50.31016 | -101.76628 | 25921 ft | 285 kts | 278° |
| 2026-04-17 22:20 | 50.31224 | -101.79702 | 25925 ft | 286 kts | 278° |
| 2026-04-17 22:21 | 50.31431 | -101.82771 | 25935 ft | 286 kts | 278° |
| 2026-04-17 22:21 | 50.31638 | -101.85845 | 25884 ft | 288 kts | 278° |
| 2026-04-17 22:21 | 50.31850 | -101.88992 | 25659 ft | 292 kts | 279° |
| 2026-04-17 22:21 | 50.32058 | -101.92111 | 25446 ft | 288 kts | 279° |
| 2026-04-17 22:22 | 50.32264 | -101.95198 | 25250 ft | 284 kts | 280° |
| 2026-04-17 22:22 | 50.32467 | -101.98266 | 25029 ft | 280 kts | 281° |
| 2026-04-17 22:22 | 50.32664 | -102.01267 | 24821 ft | 277 kts | 281° |
| 2026-04-17 22:22 | 50.32859 | -102.04240 | 24564 ft | 275 kts | 281° |
| 2026-04-17 22:23 | 50.33051 | -102.07172 | 24291 ft | 272 kts | 281° |
| 2026-04-17 22:23 | 50.33241 | -102.10091 | 24007 ft | 270 kts | 281° |
| 2026-04-17 22:23 | 50.33431 | -102.13015 | 23717 ft | 269 kts | 281° |
| 2026-04-17 22:23 | 50.33618 | -102.15913 | 23432 ft | 267 kts | 282° |
| 2026-04-17 22:24 | 50.33803 | -102.18787 | 23158 ft | 272 kts | 282° |
| 2026-04-17 22:24 | 50.33995 | -102.21769 | 22903 ft | 281 kts | 281° |
| 2026-04-17 22:24 | 50.34192 | -102.24835 | 22642 ft | 288 kts | 281° |
| 2026-04-17 22:24 | 50.34392 | -102.27988 | 22376 ft | 294 kts | 281° |
| 2026-04-17 22:25 | 50.34595 | -102.31203 | 22105 ft | 299 kts | 281° |
| 2026-04-17 22:25 | 50.34799 | -102.34451 | 21830 ft | 302 kts | 281° |
| 2026-04-17 22:25 | 50.35003 | -102.37716 | 21546 ft | 302 kts | 281° |
| 2026-04-17 22:25 | 50.35204 | -102.40963 | 21267 ft | 302 kts | 281° |
| 2026-04-17 22:26 | 50.35405 | -102.44212 | 20983 ft | 302 kts | 281° |
| 2026-04-17 22:26 | 50.35606 | -102.47473 | 20694 ft | 302 kts | 281° |
| 2026-04-17 22:26 | 50.35806 | -102.50731 | 20408 ft | 302 kts | 281° |
| 2026-04-17 22:26 | 50.35988 | -102.54007 | 20118 ft | 302 kts | 281° |
| 2026-04-17 22:27 | 50.36163 | -102.57264 | 19833 ft | 301 kts | 281° |
| 2026-04-17 22:27 | 50.36337 | -102.60497 | 19543 ft | 299 kts | 281° |
| 2026-04-17 22:27 | 50.36510 | -102.63733 | 19251 ft | 297 kts | 281° |
| 2026-04-17 22:27 | 50.36625 | -102.65880 | 19061 ft | 296 kts | 280° |
| 2026-04-17 22:28 | 50.36852 | -102.70140 | 18682 ft | 295 kts | 280° |
| 2026-04-17 22:28 | 50.37021 | -102.73342 | 18401 ft | 294 kts | 280° |
| 2026-04-17 22:28 | 50.37188 | -102.76502 | 18112 ft | 293 kts | 281° |
| 2026-04-17 22:28 | 50.37355 | -102.79676 | 17834 ft | 293 kts | 281° |
| 2026-04-17 22:29 | 50.37522 | -102.82842 | 17578 ft | 290 kts | 281° |
| 2026-04-17 22:29 | 50.37682 | -102.85953 | 17278 ft | 289 kts | 281° |
| 2026-04-17 22:29 | 50.37843 | -102.89078 | 16992 ft | 288 kts | 281° |
| 2026-04-17 22:29 | 50.38005 | -102.92193 | 16710 ft | 286 kts | 281° |
| 2026-04-17 22:30 | 50.38165 | -102.95298 | 16400 ft | 285 kts | 281° |
| 2026-04-17 22:30 | 50.38320 | -102.98371 | 16117 ft | 285 kts | 282° |
| 2026-04-17 22:30 | 50.38475 | -103.01434 | 15822 ft | 284 kts | 281° |
| 2026-04-17 22:30 | 50.38632 | -103.04501 | 15549 ft | 283 kts | 281° |
| 2026-04-17 22:31 | 50.38785 | -103.07583 | 15255 ft | 283 kts | 281° |
| 2026-04-17 22:31 | 50.38937 | -103.10641 | 14958 ft | 282 kts | 281° |
| 2026-04-17 22:31 | 50.39089 | -103.13660 | 14682 ft | 281 kts | 281° |
| 2026-04-17 22:31 | 50.39237 | -103.16683 | 14390 ft | 279 kts | 281° |
| 2026-04-17 22:32 | 50.39386 | -103.19724 | 14122 ft | 277 kts | 282° |
| 2026-04-17 22:32 | 50.39532 | -103.22729 | 13820 ft | 277 kts | 281° |
| 2026-04-17 22:32 | 50.39677 | -103.25709 | 13541 ft | 274 kts | 281° |
| 2026-04-17 22:32 | 50.39819 | -103.28642 | 13262 ft | 272 kts | 281° |
| 2026-04-17 22:33 | 50.39962 | -103.31587 | 12975 ft | 270 kts | 281° |
| 2026-04-17 22:33 | 50.40099 | -103.34486 | 12668 ft | 266 kts | 282° |
| 2026-04-17 22:33 | 50.40235 | -103.37343 | 12378 ft | 262 kts | 282° |
| 2026-04-17 22:33 | 50.40369 | -103.40181 | 12135 ft | 258 kts | 282° |
| 2026-04-17 22:34 | 50.40499 | -103.42954 | 11896 ft | 255 kts | 282° |
| 2026-04-17 22:34 | 50.40629 | -103.45719 | 11685 ft | 255 kts | 282° |
| 2026-04-17 22:34 | 50.40758 | -103.48470 | 11473 ft | 255 kts | 282° |
| 2026-04-17 22:34 | 50.40888 | -103.51253 | 11249 ft | 256 kts | 281° |
| 2026-04-17 22:35 | 50.41017 | -103.54033 | 11059 ft | 255 kts | 281° |
| 2026-04-17 22:35 | 50.41143 | -103.56797 | 10833 ft | 255 kts | 282° |
| 2026-04-17 22:35 | 50.41267 | -103.59538 | 10642 ft | 254 kts | 282° |
| 2026-04-17 22:35 | 50.41394 | -103.62323 | 10370 ft | 256 kts | 282° |
| 2026-04-17 22:36 | 50.41518 | -103.65060 | 10146 ft | 254 kts | 281° |
| 2026-04-17 22:36 | 50.41642 | -103.67830 | 9917 ft | 254 kts | 281° |
| 2026-04-17 22:36 | 50.41765 | -103.70573 | 9693 ft | 254 kts | 281° |
| 2026-04-17 22:36 | 50.41887 | -103.73324 | 9484 ft | 254 kts | 281° |
| 2026-04-17 22:37 | 50.42009 | -103.76083 | 9272 ft | 253 kts | 281° |
| 2026-04-17 22:37 | 50.42130 | -103.78831 | 9062 ft | 253 kts | 281° |
| 2026-04-17 22:37 | 50.42250 | -103.81596 | 8845 ft | 253 kts | 281° |
| 2026-04-17 22:37 | 50.42369 | -103.84322 | 8636 ft | 252 kts | 281° |
| 2026-04-17 22:38 | 50.42486 | -103.87032 | 8424 ft | 252 kts | 281° |
| 2026-04-17 22:38 | 50.42425 | -103.89812 | 8181 ft | 261 kts | 265° |
| 2026-04-17 22:38 | 50.41900 | -103.92543 | 7984 ft | 264 kts | 259° |
| 2026-04-17 22:38 | 50.41299 | -103.95276 | 7770 ft | 264 kts | 258° |
| 2026-04-17 22:39 | 50.40699 | -103.97967 | 7557 ft | 263 kts | 258° |
| 2026-04-17 22:39 | 50.40099 | -104.00680 | 7334 ft | 258 kts | 258° |
| 2026-04-17 22:39 | 50.38961 | -104.05844 | 6889 ft | 247 kts | 259° |
| 2026-04-17 22:40 | 50.38404 | -104.08379 | 6684 ft | 243 kts | 259° |
| 2026-04-17 22:40 | 50.37861 | -104.10847 | 6495 ft | 239 kts | 259° |
| 2026-04-17 22:40 | 50.37324 | -104.13288 | 6305 ft | 236 kts | 259° |
| 2026-04-17 22:40 | 50.36789 | -104.15720 | 6114 ft | 234 kts | 259° |
| 2026-04-17 22:41 | 50.36267 | -104.18092 | 5926 ft | 232 kts | 259° |
| 2026-04-17 22:41 | 50.35741 | -104.20476 | 5737 ft | 231 kts | 259° |
| 2026-04-17 22:41 | 50.35219 | -104.22839 | 5551 ft | 229 kts | 258° |
| 2026-04-17 22:41 | 50.34708 | -104.25144 | 5350 ft | 220 kts | 259° |
| 2026-04-17 22:42 | 50.34224 | -104.27355 | 5142 ft | 210 kts | 260° |
| 2026-04-17 22:42 | 50.33785 | -104.29489 | 4941 ft | 201 kts | 261° |
| 2026-04-17 22:42 | 50.33370 | -104.31511 | 4748 ft | 193 kts | 261° |
| 2026-04-17 22:42 | 50.32967 | -104.33466 | 4550 ft | 187 kts | 261° |
| 2026-04-17 22:43 | 50.32572 | -104.35382 | 4314 ft | 184 kts | 261° |
| 2026-04-17 22:43 | 50.32177 | -104.37294 | 4046 ft | 182 kts | 261° |
| 2026-04-17 22:43 | 50.31796 | -104.39116 | 3976 ft | 175 kts | 261° |
| 2026-04-17 22:43 | 50.31419 | -104.40929 | 3977 ft | 176 kts | 261° |
| 2026-04-17 22:44 | 50.31038 | -104.42762 | 3974 ft | 175 kts | 261° |
| 2026-04-17 22:44 | 50.30661 | -104.44563 | 3965 ft | 174 kts | 261° |
| 2026-04-17 22:44 | 50.30407 | -104.46342 | 3942 ft | 164 kts | 277° |
| 2026-04-17 22:44 | 50.30632 | -104.48006 | 3898 ft | 150 kts | 301° |
| 2026-04-17 22:45 | 50.31227 | -104.49251 | 3884 ft | 138 kts | 319° |
| 2026-04-17 22:45 | 50.31921 | -104.50220 | 3882 ft | 130 kts | 321° |
| 2026-04-17 22:45 | 50.32579 | -104.51132 | 3921 ft | 123 kts | 320° |
| 2026-04-17 22:45 | 50.33222 | -104.52035 | 3986 ft | 127 kts | 320° |
| 2026-04-17 22:46 | 50.33883 | -104.52966 | 3972 ft | 128 kts | 320° |
| 2026-04-17 22:46 | 50.34529 | -104.53876 | 3963 ft | 119 kts | 320° |
| 2026-04-17 22:46 | 50.35104 | -104.54687 | 3947 ft | 102 kts | 320° |
| 2026-04-17 22:46 | 50.35599 | -104.55384 | 3879 ft | 96 kts | 320° |
| 2026-04-17 22:47 | 50.36105 | -104.56093 | 3733 ft | 100 kts | 320° |
| 2026-04-17 22:47 | 50.36634 | -104.56835 | 3574 ft | 102 kts | 320° |
| 2026-04-17 22:47 | 50.37156 | -104.57567 | 3426 ft | 101 kts | 319° |
| 2026-04-17 22:47 | 50.37683 | -104.58308 | 3275 ft | 100 kts | 319° |
| 2026-04-17 22:48 | 50.38199 | -104.59034 | 3127 ft | 100 kts | 319° |
| 2026-04-17 22:48 | 50.38718 | -104.59765 | 2980 ft | 101 kts | 319° |
| 2026-04-17 22:48 | 50.39245 | -104.60506 | 2825 ft | 102 kts | 319° |
| 2026-04-17 22:48 | 50.39776 | -104.61253 | 2676 ft | 102 kts | 319° |
| 2026-04-17 22:49 | 50.40302 | -104.61994 | 2526 ft | 103 kts | 318° |
| 2026-04-17 22:49 | 50.40835 | -104.62747 | 2377 ft | 104 kts | 317° |
| 2026-04-17 22:49 | 50.41367 | -104.63533 | 2245 ft | 102 kts | 318° |
| 2026-04-17 22:49 | 50.41894 | -104.64257 | 2094 ft | 100 kts | 320° |
| 2026-04-17 22:50 | 50.42418 | -104.64975 | 1931 ft | 100 kts | 316° |
| 2026-04-17 22:50 | 50.42887 | -104.65662 | 1890 ft | 72 kts | 317° |
| 2026-04-17 22:50 | 50.43037 | -104.65855 | 1888 ft | 41 kts | 318° |
| 2026-04-17 22:50 | 50.43210 | -104.66103 | 1888 ft | 36 kts | 316° |
| 2026-04-17 22:51 | 50.43375 | -104.66319 | 1888 ft | 21 kts | 340° |
| 2026-04-17 22:51 | 50.43457 | -104.66245 | 1888 ft | 9 kts | 44° |
| 2026-04-17 22:51 | 50.43467 | -104.66230 | 1888 ft | 0 kts | 40° |
| 2026-04-17 22:51 | 50.43478 | -104.66217 | 1888 ft | 0 kts | 47° |
| 2026-04-17 22:52 | 50.43496 | -104.66188 | 1888 ft | 0 kts | 40° |
| 2026-04-17 22:53 | 50.43498 | -104.66186 | 1888 ft | 2 kts | 38° |
| 2026-04-17 22:53 | 50.43552 | -104.66207 | 1887 ft | 16 kts | 316° |
| 2026-04-17 22:53 | 50.43647 | -104.66198 | 1885 ft | 16 kts | 47° |
| 2026-04-17 22:54 | 50.43709 | -104.66088 | 1884 ft | 10 kts | 47° |
| 2026-04-17 22:54 | 50.43755 | -104.66009 | 1884 ft | 8 kts | 50° |
| 2026-04-17 22:54 | 50.43769 | -104.65869 | 1883 ft | 19 kts | 88° |
| 2026-04-17 22:54 | 50.43769 | -104.65683 | 1882 ft | 16 kts | 89° |
| 2026-04-17 22:55 | 50.43771 | -104.65542 | 1881 ft | 6 kts | 90° |
| 2026-04-17 22:55 | 50.43771 | -104.65425 | 1880 ft | 6 kts | 75° |
| 2026-04-17 22:55 | 50.43815 | -104.65438 | 1880 ft | 9 kts | 307° |
| 2026-04-17 22:55 | 50.43834 | -104.65472 | 1880 ft | 8 kts | 312° |
| 2026-04-17 22:56 | 50.43834 | -104.65504 | 1881 ft | 0 kts | 166° |
| 2026-04-17 22:56 | 50.43830 | -104.65504 | 1881 ft | 0 kts | 180° |
| 2026-04-17 22:56 | 50.43829 | -104.65504 | 1881 ft | 0 kts | 180° |